sensor_id;sensor_type;location;lat;lon;timestamp;P1;durP1;ratioP1;P2;durP2;ratioP2
78581;SDS011;67878;46.242;5.974;2023-05-07T00:00:16;1.73;;;1.50;;
78581;SDS011;67878;46.242;5.974;2023-05-07T00:02:43;1.98;;;1.70;;
78581;SDS011;67878;46.242;5.974;2023-05-07T00:05:09;2.00;;;1.80;;
78581;SDS011;67878;46.242;5.974;2023-05-07T00:07:35;2.03;;;1.75;;
78581;SDS011;67878;46.242;5.974;2023-05-07T00:10:01;3.15;;;1.95;;
78581;SDS011;67878;46.242;5.974;2023-05-07T00:12:26;1.90;;;1.80;;
78581;SDS011;67878;46.242;5.974;2023-05-07T00:14:52;1.92;;;1.80;;
78581;SDS011;67878;46.242;5.974;2023-05-07T00:17:17;1.60;;;1.50;;
78581;SDS011;67878;46.242;5.974;2023-05-07T00:19:43;2.00;;;1.80;;
78581;SDS011;67878;46.242;5.974;2023-05-07T00:22:08;2.78;;;1.90;;
78581;SDS011;67878;46.242;5.974;2023-05-07T00:24:33;2.33;;;1.73;;
78581;SDS011;67878;46.242;5.974;2023-05-07T00:26:59;1.60;;;1.50;;
78581;SDS011;67878;46.242;5.974;2023-05-07T00:29:25;1.98;;;1.70;;
78581;SDS011;67878;46.242;5.974;2023-05-07T00:31:50;1.95;;;1.85;;
78581;SDS011;67878;46.242;5.974;2023-05-07T00:34:16;1.70;;;1.60;;
78581;SDS011;67878;46.242;5.974;2023-05-07T00:36:41;2.35;;;1.98;;
78581;SDS011;67878;46.242;5.974;2023-05-07T00:39:07;2.00;;;1.90;;
78581;SDS011;67878;46.242;5.974;2023-05-07T00:41:32;1.75;;;1.60;;
78581;SDS011;67878;46.242;5.974;2023-05-07T00:43:58;2.00;;;1.70;;
78581;SDS011;67878;46.242;5.974;2023-05-07T00:46:23;2.00;;;1.80;;
78581;SDS011;67878;46.242;5.974;2023-05-07T00:48:52;1.67;;;1.58;;
78581;SDS011;67878;46.242;5.974;2023-05-07T00:51:18;2.20;;;1.70;;
78581;SDS011;67878;46.242;5.974;2023-05-07T00:53:45;2.08;;;1.77;;
78581;SDS011;67878;46.242;5.974;2023-05-07T00:56:10;2.15;;;1.73;;
78581;SDS011;67878;46.242;5.974;2023-05-07T00:58:36;2.10;;;1.77;;
78581;SDS011;67878;46.242;5.974;2023-05-07T01:01:02;1.70;;;1.60;;
78581;SDS011;67878;46.242;5.974;2023-05-07T01:03:27;2.47;;;1.80;;
78581;SDS011;67878;46.242;5.974;2023-05-07T01:05:53;2.13;;;1.85;;
78581;SDS011;67878;46.242;5.974;2023-05-07T01:08:19;1.75;;;1.65;;
78581;SDS011;67878;46.242;5.974;2023-05-07T01:10:45;2.13;;;1.90;;
78581;SDS011;67878;46.242;5.974;2023-05-07T01:13:11;1.60;;;1.50;;
78581;SDS011;67878;46.242;5.974;2023-05-07T01:15:38;2.00;;;1.80;;
78581;SDS011;67878;46.242;5.974;2023-05-07T01:18:03;2.10;;;1.70;;
78581;SDS011;67878;46.242;5.974;2023-05-07T01:20:29;1.75;;;1.65;;
78581;SDS011;67878;46.242;5.974;2023-05-07T01:22:55;2.08;;;1.80;;
78581;SDS011;67878;46.242;5.974;2023-05-07T01:25:21;1.83;;;1.65;;
78581;SDS011;67878;46.242;5.974;2023-05-07T01:27:47;1.95;;;1.55;;
78581;SDS011;67878;46.242;5.974;2023-05-07T01:30:12;2.72;;;2.00;;
78581;SDS011;67878;46.242;5.974;2023-05-07T01:32:47;2.47;;;2.03;;
78581;SDS011;67878;46.242;5.974;2023-05-07T01:35:26;1.83;;;1.70;;
78581;SDS011;67878;46.242;5.974;2023-05-07T01:37:54;1.80;;;1.63;;
78581;SDS011;67878;46.242;5.974;2023-05-07T01:40:20;2.97;;;1.80;;
78581;SDS011;67878;46.242;5.974;2023-05-07T01:42:46;1.88;;;1.70;;
78581;SDS011;67878;46.242;5.974;2023-05-07T01:45:13;1.85;;;1.55;;
78581;SDS011;67878;46.242;5.974;2023-05-07T01:47:38;2.05;;;1.88;;
78581;SDS011;67878;46.242;5.974;2023-05-07T01:50:07;2.00;;;1.85;;
78581;SDS011;67878;46.242;5.974;2023-05-07T01:52:33;2.30;;;1.90;;
78581;SDS011;67878;46.242;5.974;2023-05-07T01:54:58;1.80;;;1.70;;
78581;SDS011;67878;46.242;5.974;2023-05-07T01:57:24;2.05;;;1.83;;
78581;SDS011;67878;46.242;5.974;2023-05-07T01:59:49;2.88;;;2.00;;
78581;SDS011;67878;46.242;5.974;2023-05-07T02:02:15;2.13;;;1.90;;
78581;SDS011;67878;46.242;5.974;2023-05-07T02:04:40;2.00;;;1.80;;
78581;SDS011;67878;46.242;5.974;2023-05-07T02:07:06;1.75;;;1.65;;
78581;SDS011;67878;46.242;5.974;2023-05-07T02:09:31;2.08;;;1.88;;
78581;SDS011;67878;46.242;5.974;2023-05-07T02:11:56;1.80;;;1.70;;
78581;SDS011;67878;46.242;5.974;2023-05-07T02:14:22;2.20;;;2.00;;
78581;SDS011;67878;46.242;5.974;2023-05-07T02:16:47;2.30;;;1.80;;
78581;SDS011;67878;46.242;5.974;2023-05-07T02:19:13;2.38;;;1.83;;
78581;SDS011;67878;46.242;5.974;2023-05-07T02:21:38;2.13;;;1.85;;
78581;SDS011;67878;46.242;5.974;2023-05-07T02:24:03;1.90;;;1.80;;
78581;SDS011;67878;46.242;5.974;2023-05-07T02:26:29;1.60;;;1.50;;
78581;SDS011;67878;46.242;5.974;2023-05-07T02:28:54;1.70;;;1.55;;
78581;SDS011;67878;46.242;5.974;2023-05-07T02:31:20;4.32;;;2.00;;
78581;SDS011;67878;46.242;5.974;2023-05-07T02:33:45;2.33;;;1.90;;
78581;SDS011;67878;46.242;5.974;2023-05-07T02:36:11;2.63;;;1.70;;
78581;SDS011;67878;46.242;5.974;2023-05-07T02:38:37;1.83;;;1.70;;
78581;SDS011;67878;46.242;5.974;2023-05-07T02:41:03;2.90;;;2.10;;
78581;SDS011;67878;46.242;5.974;2023-05-07T02:43:28;3.47;;;1.90;;
78581;SDS011;67878;46.242;5.974;2023-05-07T02:46:04;3.03;;;2.08;;
78581;SDS011;67878;46.242;5.974;2023-05-07T02:48:30;3.03;;;1.80;;
78581;SDS011;67878;46.242;5.974;2023-05-07T02:50:56;2.10;;;1.73;;
78581;SDS011;67878;46.242;5.974;2023-05-07T02:53:22;2.17;;;1.70;;
78581;SDS011;67878;46.242;5.974;2023-05-07T02:55:47;2.10;;;1.60;;
78581;SDS011;67878;46.242;5.974;2023-05-07T02:58:13;2.45;;;2.00;;
78581;SDS011;67878;46.242;5.974;2023-05-07T03:00:38;3.60;;;2.05;;
78581;SDS011;67878;46.242;5.974;2023-05-07T03:03:03;2.88;;;2.53;;
78581;SDS011;67878;46.242;5.974;2023-05-07T03:05:29;2.63;;;1.83;;
78581;SDS011;67878;46.242;5.974;2023-05-07T03:07:55;1.90;;;1.52;;
78581;SDS011;67878;46.242;5.974;2023-05-07T03:10:20;4.10;;;1.90;;
78581;SDS011;67878;46.242;5.974;2023-05-07T03:12:46;2.30;;;1.98;;
78581;SDS011;67878;46.242;5.974;2023-05-07T03:15:11;1.90;;;1.70;;
78581;SDS011;67878;46.242;5.974;2023-05-07T03:17:37;2.58;;;2.13;;
78581;SDS011;67878;46.242;5.974;2023-05-07T03:20:03;2.97;;;2.05;;
78581;SDS011;67878;46.242;5.974;2023-05-07T03:22:29;2.33;;;1.92;;
78581;SDS011;67878;46.242;5.974;2023-05-07T03:24:54;2.10;;;1.80;;
78581;SDS011;67878;46.242;5.974;2023-05-07T03:27:20;2.08;;;1.88;;
78581;SDS011;67878;46.242;5.974;2023-05-07T03:29:45;2.15;;;1.70;;
78581;SDS011;67878;46.242;5.974;2023-05-07T03:32:12;2.00;;;1.80;;
78581;SDS011;67878;46.242;5.974;2023-05-07T03:34:42;1.92;;;1.83;;
78581;SDS011;67878;46.242;5.974;2023-05-07T03:37:20;2.28;;;1.60;;
78581;SDS011;67878;46.242;5.974;2023-05-07T03:39:51;2.50;;;1.77;;
78581;SDS011;67878;46.242;5.974;2023-05-07T03:42:19;1.98;;;1.77;;
78581;SDS011;67878;46.242;5.974;2023-05-07T03:44:46;1.88;;;1.70;;
78581;SDS011;67878;46.242;5.974;2023-05-07T03:47:16;1.73;;;1.63;;
78581;SDS011;67878;46.242;5.974;2023-05-07T03:49:52;1.85;;;1.75;;
78581;SDS011;67878;46.242;5.974;2023-05-07T03:52:25;2.13;;;1.77;;
78581;SDS011;67878;46.242;5.974;2023-05-07T03:54:54;2.00;;;1.80;;
78581;SDS011;67878;46.242;5.974;2023-05-07T03:57:21;1.73;;;1.63;;
78581;SDS011;67878;46.242;5.974;2023-05-07T03:59:51;2.22;;;1.60;;
78581;SDS011;67878;46.242;5.974;2023-05-07T04:02:23;2.35;;;2.05;;
78581;SDS011;67878;46.242;5.974;2023-05-07T04:04:55;3.20;;;1.88;;
78581;SDS011;67878;46.242;5.974;2023-05-07T04:07:22;1.77;;;1.50;;
78581;SDS011;67878;46.242;5.974;2023-05-07T04:09:52;4.53;;;1.90;;
78581;SDS011;67878;46.242;5.974;2023-05-07T04:12:22;2.20;;;1.58;;
78581;SDS011;67878;46.242;5.974;2023-05-07T04:14:54;1.98;;;1.75;;
78581;SDS011;67878;46.242;5.974;2023-05-07T04:17:24;2.30;;;1.90;;
78581;SDS011;67878;46.242;5.974;2023-05-07T04:19:54;1.85;;;1.60;;
78581;SDS011;67878;46.242;5.974;2023-05-07T04:22:23;1.77;;;1.63;;
78581;SDS011;67878;46.242;5.974;2023-05-07T04:24:51;2.17;;;1.80;;
78581;SDS011;67878;46.242;5.974;2023-05-07T04:27:18;2.25;;;1.60;;
78581;SDS011;67878;46.242;5.974;2023-05-07T04:29:48;1.70;;;1.60;;
78581;SDS011;67878;46.242;5.974;2023-05-07T04:32:20;3.63;;;1.85;;
78581;SDS011;67878;46.242;5.974;2023-05-07T04:34:48;1.70;;;1.55;;
78581;SDS011;67878;46.242;5.974;2023-05-07T04:37:17;1.80;;;1.70;;
78581;SDS011;67878;46.242;5.974;2023-05-07T04:39:45;2.10;;;1.80;;
78581;SDS011;67878;46.242;5.974;2023-05-07T04:42:14;1.55;;;1.45;;
78581;SDS011;67878;46.242;5.974;2023-05-07T04:44:40;2.33;;;1.40;;
78581;SDS011;67878;46.242;5.974;2023-05-07T04:47:05;1.95;;;1.77;;
78581;SDS011;67878;46.242;5.974;2023-05-07T04:49:33;2.03;;;1.67;;
78581;SDS011;67878;46.242;5.974;2023-05-07T04:52:02;1.73;;;1.63;;
78581;SDS011;67878;46.242;5.974;2023-05-07T04:54:31;1.70;;;1.60;;
78581;SDS011;67878;46.242;5.974;2023-05-07T04:56:56;1.85;;;1.65;;
78581;SDS011;67878;46.242;5.974;2023-05-07T04:59:22;1.60;;;1.50;;
78581;SDS011;67878;46.242;5.974;2023-05-07T05:01:48;1.95;;;1.77;;
78581;SDS011;67878;46.242;5.974;2023-05-07T05:04:17;2.38;;;1.70;;
78581;SDS011;67878;46.242;5.974;2023-05-07T05:06:42;1.60;;;1.50;;
78581;SDS011;67878;46.242;5.974;2023-05-07T05:09:10;2.35;;;1.70;;
78581;SDS011;67878;46.242;5.974;2023-05-07T05:11:44;1.85;;;1.75;;
78581;SDS011;67878;46.242;5.974;2023-05-07T05:14:09;2.15;;;1.60;;
78581;SDS011;67878;46.242;5.974;2023-05-07T05:16:36;2.42;;;1.80;;
78581;SDS011;67878;46.242;5.974;2023-05-07T05:19:05;2.13;;;1.77;;
78581;SDS011;67878;46.242;5.974;2023-05-07T05:21:31;2.50;;;1.75;;
78581;SDS011;67878;46.242;5.974;2023-05-07T05:23:56;2.25;;;1.80;;
78581;SDS011;67878;46.242;5.974;2023-05-07T05:26:22;2.13;;;1.67;;
78581;SDS011;67878;46.242;5.974;2023-05-07T05:28:48;1.88;;;1.67;;
78581;SDS011;67878;46.242;5.974;2023-05-07T05:31:16;1.52;;;1.40;;
78581;SDS011;67878;46.242;5.974;2023-05-07T05:33:44;1.92;;;1.50;;
78581;SDS011;67878;46.242;5.974;2023-05-07T05:36:10;1.95;;;1.55;;
78581;SDS011;67878;46.242;5.974;2023-05-07T05:38:36;2.47;;;1.67;;
78581;SDS011;67878;46.242;5.974;2023-05-07T05:41:02;1.80;;;1.70;;
78581;SDS011;67878;46.242;5.974;2023-05-07T05:43:28;1.85;;;1.75;;
78581;SDS011;67878;46.242;5.974;2023-05-07T05:45:55;1.65;;;1.55;;
78581;SDS011;67878;46.242;5.974;2023-05-07T05:48:21;2.60;;;1.60;;
78581;SDS011;67878;46.242;5.974;2023-05-07T05:50:46;2.03;;;1.60;;
78581;SDS011;67878;46.242;5.974;2023-05-07T05:53:11;2.05;;;1.70;;
78581;SDS011;67878;46.242;5.974;2023-05-07T05:55:39;1.88;;;1.70;;
78581;SDS011;67878;46.242;5.974;2023-05-07T05:58:08;1.90;;;1.73;;
78581;SDS011;67878;46.242;5.974;2023-05-07T06:00:36;1.48;;;1.33;;
78581;SDS011;67878;46.242;5.974;2023-05-07T06:03:06;1.73;;;1.63;;
78581;SDS011;67878;46.242;5.974;2023-05-07T06:05:36;2.10;;;1.90;;
78581;SDS011;67878;46.242;5.974;2023-05-07T06:08:12;1.83;;;1.60;;
78581;SDS011;67878;46.242;5.974;2023-05-07T06:10:38;1.80;;;1.42;;
78581;SDS011;67878;46.242;5.974;2023-05-07T06:13:03;1.65;;;1.55;;
78581;SDS011;67878;46.242;5.974;2023-05-07T06:15:29;2.30;;;1.50;;
78581;SDS011;67878;46.242;5.974;2023-05-07T06:17:54;1.65;;;1.50;;
78581;SDS011;67878;46.242;5.974;2023-05-07T06:20:22;1.70;;;1.60;;
78581;SDS011;67878;46.242;5.974;2023-05-07T06:25:17;2.85;;;1.77;;
78581;SDS011;67878;46.242;5.974;2023-05-07T06:27:45;2.72;;;1.45;;
78581;SDS011;67878;46.242;5.974;2023-05-07T06:30:11;1.60;;;1.50;;
78581;SDS011;67878;46.242;5.974;2023-05-07T06:32:36;2.22;;;1.83;;
78581;SDS011;67878;46.242;5.974;2023-05-07T06:35:03;2.05;;;1.45;;
78581;SDS011;67878;46.242;5.974;2023-05-07T06:37:33;2.10;;;1.90;;
78581;SDS011;67878;46.242;5.974;2023-05-07T06:40:07;2.55;;;1.50;;
78581;SDS011;67878;46.242;5.974;2023-05-07T06:42:36;1.88;;;1.58;;
78581;SDS011;67878;46.242;5.974;2023-05-07T06:45:05;1.48;;;1.30;;
78581;SDS011;67878;46.242;5.974;2023-05-07T06:47:36;1.63;;;1.48;;
78581;SDS011;67878;46.242;5.974;2023-05-07T06:50:12;2.42;;;1.75;;
78581;SDS011;67878;46.242;5.974;2023-05-07T06:52:42;3.58;;;1.63;;
78581;SDS011;67878;46.242;5.974;2023-05-07T06:55:09;1.60;;;1.50;;
78581;SDS011;67878;46.242;5.974;2023-05-07T06:57:40;3.47;;;1.40;;
78581;SDS011;67878;46.242;5.974;2023-05-07T07:00:09;1.77;;;1.63;;
78581;SDS011;67878;46.242;5.974;2023-05-07T07:02:36;2.47;;;1.67;;
78581;SDS011;67878;46.242;5.974;2023-05-07T07:05:01;2.10;;;1.30;;
78581;SDS011;67878;46.242;5.974;2023-05-07T07:07:27;2.55;;;1.55;;
78581;SDS011;67878;46.242;5.974;2023-05-07T07:09:52;1.95;;;1.45;;
78581;SDS011;67878;46.242;5.974;2023-05-07T07:12:17;2.38;;;2.08;;
78581;SDS011;67878;46.242;5.974;2023-05-07T07:14:43;4.38;;;2.30;;
78581;SDS011;67878;46.242;5.974;2023-05-07T07:17:08;4.72;;;2.20;;
78581;SDS011;67878;46.242;5.974;2023-05-07T07:19:33;7.53;;;2.10;;
78581;SDS011;67878;46.242;5.974;2023-05-07T07:22:00;6.22;;;2.60;;
78581;SDS011;67878;46.242;5.974;2023-05-07T07:24:28;5.07;;;2.30;;
78581;SDS011;67878;46.242;5.974;2023-05-07T07:26:54;4.38;;;1.88;;
78581;SDS011;67878;46.242;5.974;2023-05-07T07:29:20;5.15;;;1.95;;
78581;SDS011;67878;46.242;5.974;2023-05-07T07:31:45;4.03;;;2.03;;
78581;SDS011;67878;46.242;5.974;2023-05-07T07:34:11;3.55;;;1.70;;
78581;SDS011;67878;46.242;5.974;2023-05-07T07:36:36;3.15;;;1.83;;
78581;SDS011;67878;46.242;5.974;2023-05-07T07:39:03;6.55;;;2.45;;
78581;SDS011;67878;46.242;5.974;2023-05-07T07:41:30;2.60;;;1.90;;
78581;SDS011;67878;46.242;5.974;2023-05-07T07:43:55;3.20;;;1.60;;
78581;SDS011;67878;46.242;5.974;2023-05-07T07:46:21;2.65;;;1.80;;
78581;SDS011;67878;46.242;5.974;2023-05-07T07:48:47;4.53;;;1.90;;
78581;SDS011;67878;46.242;5.974;2023-05-07T07:51:16;2.05;;;1.70;;
78581;SDS011;67878;46.242;5.974;2023-05-07T07:53:43;3.63;;;2.00;;
78581;SDS011;67878;46.242;5.974;2023-05-07T07:56:11;2.47;;;1.77;;
78581;SDS011;67878;46.242;5.974;2023-05-07T07:58:37;4.20;;;2.03;;
78581;SDS011;67878;46.242;5.974;2023-05-07T08:01:03;2.30;;;1.73;;
78581;SDS011;67878;46.242;5.974;2023-05-07T08:03:28;3.13;;;1.80;;
78581;SDS011;67878;46.242;5.974;2023-05-07T08:05:58;2.30;;;1.60;;
78581;SDS011;67878;46.242;5.974;2023-05-07T08:08:28;2.65;;;1.80;;
78581;SDS011;67878;46.242;5.974;2023-05-07T08:10:53;1.70;;;1.60;;
78581;SDS011;67878;46.242;5.974;2023-05-07T08:13:20;2.38;;;1.75;;
78581;SDS011;67878;46.242;5.974;2023-05-07T08:15:48;2.70;;;1.80;;
78581;SDS011;67878;46.242;5.974;2023-05-07T08:18:13;3.33;;;2.05;;
78581;SDS011;67878;46.242;5.974;2023-05-07T08:20:40;2.75;;;1.50;;
78581;SDS011;67878;46.242;5.974;2023-05-07T08:23:06;1.92;;;1.65;;
78581;SDS011;67878;46.242;5.974;2023-05-07T08:25:33;1.90;;;1.70;;
78581;SDS011;67878;46.242;5.974;2023-05-07T08:28:00;2.10;;;1.63;;
78581;SDS011;67878;46.242;5.974;2023-05-07T08:30:31;2.95;;;1.75;;
78581;SDS011;67878;46.242;5.974;2023-05-07T08:32:57;3.63;;;1.67;;
78581;SDS011;67878;46.242;5.974;2023-05-07T08:35:22;1.80;;;1.45;;
78581;SDS011;67878;46.242;5.974;2023-05-07T08:37:47;1.98;;;1.77;;
78581;SDS011;67878;46.242;5.974;2023-05-07T08:40:13;1.70;;;1.50;;
78581;SDS011;67878;46.242;5.974;2023-05-07T08:42:38;1.92;;;1.70;;
78581;SDS011;67878;46.242;5.974;2023-05-07T08:45:08;2.72;;;1.75;;
78581;SDS011;67878;46.242;5.974;2023-05-07T08:47:43;2.28;;;1.60;;
78581;SDS011;67878;46.242;5.974;2023-05-07T08:50:10;3.38;;;1.80;;
78581;SDS011;67878;46.242;5.974;2023-05-07T08:52:36;1.98;;;1.88;;
78581;SDS011;67878;46.242;5.974;2023-05-07T08:55:03;2.17;;;1.60;;
78581;SDS011;67878;46.242;5.974;2023-05-07T08:57:31;2.67;;;1.65;;
78581;SDS011;67878;46.242;5.974;2023-05-07T08:59:57;2.15;;;1.80;;
78581;SDS011;67878;46.242;5.974;2023-05-07T09:02:22;1.98;;;1.73;;
78581;SDS011;67878;46.242;5.974;2023-05-07T09:04:48;2.60;;;1.60;;
78581;SDS011;67878;46.242;5.974;2023-05-07T09:07:14;1.77;;;1.50;;
78581;SDS011;67878;46.242;5.974;2023-05-07T09:09:45;1.83;;;1.70;;
78581;SDS011;67878;46.242;5.974;2023-05-07T09:12:22;2.33;;;2.10;;
78581;SDS011;67878;46.242;5.974;2023-05-07T09:14:47;2.92;;;2.08;;
78581;SDS011;67878;46.242;5.974;2023-05-07T09:17:13;2.10;;;1.67;;
78581;SDS011;67878;46.242;5.974;2023-05-07T09:19:41;1.98;;;1.65;;
78581;SDS011;67878;46.242;5.974;2023-05-07T09:22:13;2.50;;;1.70;;
78581;SDS011;67878;46.242;5.974;2023-05-07T09:24:47;2.65;;;1.70;;
78581;SDS011;67878;46.242;5.974;2023-05-07T09:27:16;1.88;;;1.70;;
78581;SDS011;67878;46.242;5.974;2023-05-07T09:29:43;2.67;;;2.10;;
78581;SDS011;67878;46.242;5.974;2023-05-07T09:32:08;1.65;;;1.55;;
78581;SDS011;67878;46.242;5.974;2023-05-07T09:34:34;1.80;;;1.70;;
78581;SDS011;67878;46.242;5.974;2023-05-07T09:37:00;2.35;;;1.50;;
78581;SDS011;67878;46.242;5.974;2023-05-07T09:39:37;2.08;;;1.42;;
78581;SDS011;67878;46.242;5.974;2023-05-07T09:42:09;3.28;;;1.92;;
78581;SDS011;67878;46.242;5.974;2023-05-07T09:44:38;1.73;;;1.63;;
78581;SDS011;67878;46.242;5.974;2023-05-07T09:47:08;1.98;;;1.65;;
78581;SDS011;67878;46.242;5.974;2023-05-07T09:49:47;1.48;;;1.38;;
78581;SDS011;67878;46.242;5.974;2023-05-07T09:52:14;1.90;;;1.70;;
78581;SDS011;67878;46.242;5.974;2023-05-07T09:54:42;2.10;;;1.67;;
78581;SDS011;67878;46.242;5.974;2023-05-07T09:57:13;2.10;;;1.60;;
78581;SDS011;67878;46.242;5.974;2023-05-07T09:59:43;1.85;;;1.70;;
78581;SDS011;67878;46.242;5.974;2023-05-07T10:02:17;2.65;;;1.58;;
78581;SDS011;67878;46.242;5.974;2023-05-07T10:04:49;1.75;;;1.65;;
78581;SDS011;67878;46.242;5.974;2023-05-07T10:07:15;1.73;;;1.63;;
78581;SDS011;67878;46.242;5.974;2023-05-07T10:09:42;2.17;;;1.77;;
78581;SDS011;67878;46.242;5.974;2023-05-07T10:12:09;1.65;;;1.55;;
78581;SDS011;67878;46.242;5.974;2023-05-07T10:14:34;2.03;;;1.80;;
78581;SDS011;67878;46.242;5.974;2023-05-07T10:17:00;3.70;;;2.05;;
78581;SDS011;67878;46.242;5.974;2023-05-07T10:19:30;1.95;;;1.70;;
78581;SDS011;67878;46.242;5.974;2023-05-07T10:22:01;2.33;;;1.50;;
78581;SDS011;67878;46.242;5.974;2023-05-07T10:24:32;1.75;;;1.63;;
78581;SDS011;67878;46.242;5.974;2023-05-07T10:27:01;1.92;;;1.73;;
78581;SDS011;67878;46.242;5.974;2023-05-07T10:29:45;2.40;;;1.88;;
78581;SDS011;67878;46.242;5.974;2023-05-07T10:35:10;3.40;;;1.60;;
78581;SDS011;67878;46.242;5.974;2023-05-07T10:37:39;3.63;;;1.67;;
78581;SDS011;67878;46.242;5.974;2023-05-07T10:40:05;3.67;;;2.30;;
78581;SDS011;67878;46.242;5.974;2023-05-07T10:42:32;3.33;;;1.65;;
78581;SDS011;67878;46.242;5.974;2023-05-07T10:44:57;3.83;;;1.58;;
78581;SDS011;67878;46.242;5.974;2023-05-07T10:47:23;2.28;;;1.67;;
78581;SDS011;67878;46.242;5.974;2023-05-07T10:52:16;3.88;;;1.50;;
78581;SDS011;67878;46.242;5.974;2023-05-07T10:54:48;3.10;;;1.60;;
78581;SDS011;67878;46.242;5.974;2023-05-07T10:57:42;2.40;;;1.70;;
78581;SDS011;67878;46.242;5.974;2023-05-07T11:00:40;3.65;;;1.90;;
78581;SDS011;67878;46.242;5.974;2023-05-07T11:05:32;6.20;;;1.67;;
78581;SDS011;67878;46.242;5.974;2023-05-07T11:07:58;4.13;;;1.85;;
78581;SDS011;67878;46.242;5.974;2023-05-07T11:13:12;2.65;;;1.50;;
78581;SDS011;67878;46.242;5.974;2023-05-07T11:15:40;2.15;;;1.45;;
78581;SDS011;67878;46.242;5.974;2023-05-07T11:18:09;1.92;;;1.73;;
78581;SDS011;67878;46.242;5.974;2023-05-07T11:20:51;1.83;;;1.58;;
78581;SDS011;67878;46.242;5.974;2023-05-07T11:26:09;2.42;;;1.60;;
78581;SDS011;67878;46.242;5.974;2023-05-07T11:28:42;1.98;;;1.60;;
78581;SDS011;67878;46.242;5.974;2023-05-07T11:31:08;2.65;;;1.52;;
78581;SDS011;67878;46.242;5.974;2023-05-07T11:33:35;2.92;;;1.40;;
78581;SDS011;67878;46.242;5.974;2023-05-07T11:36:02;2.33;;;1.42;;
78581;SDS011;67878;46.242;5.974;2023-05-07T11:38:34;3.03;;;1.33;;
78581;SDS011;67878;46.242;5.974;2023-05-07T11:41:01;2.65;;;1.40;;
78581;SDS011;67878;46.242;5.974;2023-05-07T11:43:28;1.73;;;1.40;;
78581;SDS011;67878;46.242;5.974;2023-05-07T11:46:04;4.78;;;1.55;;
78581;SDS011;67878;46.242;5.974;2023-05-07T11:48:31;4.05;;;1.40;;
78581;SDS011;67878;46.242;5.974;2023-05-07T11:51:03;1.70;;;1.02;;
78581;SDS011;67878;46.242;5.974;2023-05-07T11:53:38;2.05;;;1.10;;
78581;SDS011;67878;46.242;5.974;2023-05-07T11:56:10;3.45;;;1.30;;
78581;SDS011;67878;46.242;5.974;2023-05-07T11:58:36;3.50;;;1.38;;
78581;SDS011;67878;46.242;5.974;2023-05-07T12:01:02;2.33;;;1.38;;
78581;SDS011;67878;46.242;5.974;2023-05-07T12:03:28;1.92;;;1.40;;
78581;SDS011;67878;46.242;5.974;2023-05-07T12:05:53;1.90;;;1.20;;
78581;SDS011;67878;46.242;5.974;2023-05-07T12:08:19;1.77;;;1.10;;
78581;SDS011;67878;46.242;5.974;2023-05-07T12:10:47;2.10;;;1.35;;
78581;SDS011;67878;46.242;5.974;2023-05-07T12:13:17;1.95;;;1.38;;
78581;SDS011;67878;46.242;5.974;2023-05-07T12:15:43;1.17;;;1.02;;
78581;SDS011;67878;46.242;5.974;2023-05-07T12:18:10;1.83;;;1.20;;
78581;SDS011;67878;46.242;5.974;2023-05-07T12:20:36;3.30;;;1.20;;
78581;SDS011;67878;46.242;5.974;2023-05-07T12:23:02;2.50;;;1.13;;
78581;SDS011;67878;46.242;5.974;2023-05-07T12:25:31;1.48;;;1.20;;
78581;SDS011;67878;46.242;5.974;2023-05-07T12:28:01;1.58;;;1.20;;
78581;SDS011;67878;46.242;5.974;2023-05-07T12:30:30;1.70;;;1.00;;
78581;SDS011;67878;46.242;5.974;2023-05-07T12:33:04;2.08;;;1.27;;
78581;SDS011;67878;46.242;5.974;2023-05-07T12:35:32;1.77;;;1.20;;
78581;SDS011;67878;46.242;5.974;2023-05-07T12:38:07;4.28;;;1.23;;
78581;SDS011;67878;46.242;5.974;2023-05-07T12:40:38;1.90;;;1.10;;
78581;SDS011;67878;46.242;5.974;2023-05-07T12:43:04;3.78;;;1.40;;
78581;SDS011;67878;46.242;5.974;2023-05-07T12:45:30;3.22;;;1.10;;
78581;SDS011;67878;46.242;5.974;2023-05-07T12:47:55;4.03;;;1.25;;
78581;SDS011;67878;46.242;5.974;2023-05-07T12:50:21;7.78;;;1.52;;
78581;SDS011;67878;46.242;5.974;2023-05-07T12:52:47;4.57;;;1.10;;
78581;SDS011;67878;46.242;5.974;2023-05-07T12:55:14;3.25;;;1.10;;
78581;SDS011;67878;46.242;5.974;2023-05-07T12:57:43;3.55;;;1.10;;
78581;SDS011;67878;46.242;5.974;2023-05-07T13:00:11;2.90;;;1.20;;
78581;SDS011;67878;46.242;5.974;2023-05-07T13:02:37;2.45;;;1.23;;
78581;SDS011;67878;46.242;5.974;2023-05-07T13:05:03;1.20;;;0.98;;
78581;SDS011;67878;46.242;5.974;2023-05-07T13:07:29;1.83;;;1.00;;
78581;SDS011;67878;46.242;5.974;2023-05-07T13:09:55;3.00;;;1.00;;
78581;SDS011;67878;46.242;5.974;2023-05-07T13:12:20;1.90;;;1.20;;
78581;SDS011;67878;46.242;5.974;2023-05-07T13:14:46;4.18;;;1.33;;
78581;SDS011;67878;46.242;5.974;2023-05-07T13:17:11;1.42;;;0.98;;
78581;SDS011;67878;46.242;5.974;2023-05-07T13:19:38;2.15;;;0.95;;
78581;SDS011;67878;46.242;5.974;2023-05-07T13:22:04;3.53;;;1.25;;
78581;SDS011;67878;46.242;5.974;2023-05-07T13:24:29;1.50;;;1.00;;
78581;SDS011;67878;46.242;5.974;2023-05-07T13:26:56;3.92;;;1.15;;
78581;SDS011;67878;46.242;5.974;2023-05-07T13:29:26;2.80;;;1.27;;
78581;SDS011;67878;46.242;5.974;2023-05-07T13:31:56;1.83;;;1.02;;
78581;SDS011;67878;46.242;5.974;2023-05-07T13:34:23;2.45;;;1.40;;
78581;SDS011;67878;46.242;5.974;2023-05-07T13:36:48;2.28;;;1.13;;
78581;SDS011;67878;46.242;5.974;2023-05-07T13:39:14;3.20;;;1.13;;
78581;SDS011;67878;46.242;5.974;2023-05-07T13:41:39;1.70;;;0.93;;
78581;SDS011;67878;46.242;5.974;2023-05-07T13:44:04;1.20;;;0.90;;
78581;SDS011;67878;46.242;5.974;2023-05-07T13:46:30;3.53;;;0.95;;
78581;SDS011;67878;46.242;5.974;2023-05-07T13:48:56;2.40;;;0.90;;
78581;SDS011;67878;46.242;5.974;2023-05-07T13:51:23;2.92;;;1.08;;
78581;SDS011;67878;46.242;5.974;2023-05-07T13:53:52;2.30;;;0.90;;
78581;SDS011;67878;46.242;5.974;2023-05-07T13:56:22;1.52;;;1.00;;
78581;SDS011;67878;46.242;5.974;2023-05-07T13:58:49;3.08;;;0.95;;
78581;SDS011;67878;46.242;5.974;2023-05-07T14:01:14;2.47;;;1.10;;
78581;SDS011;67878;46.242;5.974;2023-05-07T14:03:40;1.00;;;0.90;;
78581;SDS011;67878;46.242;5.974;2023-05-07T14:06:08;1.48;;;0.90;;
78581;SDS011;67878;46.242;5.974;2023-05-07T14:08:35;2.28;;;1.02;;
78581;SDS011;67878;46.242;5.974;2023-05-07T14:11:01;2.05;;;0.90;;
78581;SDS011;67878;46.242;5.974;2023-05-07T14:13:31;2.10;;;0.90;;
78581;SDS011;67878;46.242;5.974;2023-05-07T14:16:00;1.48;;;1.00;;
78581;SDS011;67878;46.242;5.974;2023-05-07T14:18:28;1.35;;;1.00;;
78581;SDS011;67878;46.242;5.974;2023-05-07T14:20:54;2.72;;;1.08;;
78581;SDS011;67878;46.242;5.974;2023-05-07T14:23:19;1.30;;;0.77;;
78581;SDS011;67878;46.242;5.974;2023-05-07T14:25:52;2.15;;;0.80;;
78581;SDS011;67878;46.242;5.974;2023-05-07T14:28:23;1.75;;;0.80;;
78581;SDS011;67878;46.242;5.974;2023-05-07T14:30:51;1.65;;;0.80;;
78581;SDS011;67878;46.242;5.974;2023-05-07T14:33:18;0.98;;;0.80;;
78581;SDS011;67878;46.242;5.974;2023-05-07T14:35:46;1.30;;;0.80;;
78581;SDS011;67878;46.242;5.974;2023-05-07T14:38:14;2.17;;;0.70;;
78581;SDS011;67878;46.242;5.974;2023-05-07T14:40:40;1.05;;;0.60;;
78581;SDS011;67878;46.242;5.974;2023-05-07T14:43:07;1.60;;;0.95;;
78581;SDS011;67878;46.242;5.974;2023-05-07T14:45:36;5.00;;;0.98;;
78581;SDS011;67878;46.242;5.974;2023-05-07T14:48:05;1.98;;;0.70;;
78581;SDS011;67878;46.242;5.974;2023-05-07T14:50:37;1.42;;;0.60;;
78581;SDS011;67878;46.242;5.974;2023-05-07T14:53:03;1.13;;;0.60;;
78581;SDS011;67878;46.242;5.974;2023-05-07T14:55:34;2.17;;;0.90;;
78581;SDS011;67878;46.242;5.974;2023-05-07T14:58:01;2.00;;;0.82;;
78581;SDS011;67878;46.242;5.974;2023-05-07T15:00:39;0.75;;;0.68;;
78581;SDS011;67878;46.242;5.974;2023-05-07T15:03:10;0.57;;;0.57;;
78581;SDS011;67878;46.242;5.974;2023-05-07T15:05:40;1.00;;;0.80;;